Time;durP1;ratioP1;P1;durP2;ratioP2;P2;SDS_P1;SDS_P2;PMS_P1;PMS_P2;Temp;Humidity;BMP_temperature;BMP_pressure;BME280_temperature;BME280_humidity;BME280_pressure;Samples;Min_cycle;Max_cycle;Signal;HPM_P1;HPM_P2
2023/04/22 09:42:10;;;;;;;982.17;906.58;;;;;;;;;;6095760;23;1960758;-74
2023/04/22 09:44:39;;;;;;;981.60;906.10;;;;;;;;;;6173073;23;20860;-74
2023/04/22 09:47:05;;;;;;;985.67;909.92;;;;;;;;;;6174249;23;20369;-74
2023/04/22 09:49:36;;;;;;;1026.68;949.25;;;;;;;;;;6172815;23;20396;-74
2023/04/22 09:52:02;;;;;;;854.88;785.90;;;;;;;;;;6172009;23;20389;-74
2023/04/22 09:54:28;;;;;;;829.90;762.13;;;;;;;;;;6173071;23;20025;-74
2023/04/22 09:56:55;;;;;;;817.30;749.90;;;;;;;;;;6175356;23;20518;-74
2023/04/22 09:59:22;;;;;;;821.55;753.88;;;;;;;;;;6172574;23;20083;-74
2023/04/22 10:01:49;;;;;;;811.90;744.72;;;;;;;;;;6173242;23;20423;-74
2023/04/22 10:04:20;;;;;;;797.60;731.00;;;;;;;;;;6172272;23;20025;-74
2023/04/22 10:06:46;;;;;;;806.63;739.67;;;;;;;;;;6172584;23;20031;-74
2023/04/22 10:09:12;;;;;;;800.58;733.75;;;;;;;;;;6172655;23;20536;-74
2023/04/22 10:11:40;;;;;;;809.28;742.35;;;;;;;;;;6175033;23;20063;-74
2023/04/22 10:14:09;;;;;;;798.00;731.45;;;;;;;;;;6170803;23;20170;-74
2023/04/22 10:16:35;;;;;;;810.35;743.47;;;;;;;;;;6168730;23;20024;-74
2023/04/22 10:19:03;;;;;;;801.63;735.05;;;;;;;;;;6167400;23;20060;-74
2023/04/22 10:21:30;;;;;;;812.15;745.47;;;;;;;;;;6167729;23;20025;-74
2023/04/22 10:23:57;;;;;;;820.70;753.42;;;;;;;;;;6168814;23;20027;-74
2023/04/22 10:26:42;;;;;;;819.60;752.42;;;;;;;;;;6168165;23;20363;-74
2023/04/22 10:29:09;;;;;;;812.35;745.42;;;;;;;;;;6168124;23;20040;-75
2023/04/22 10:31:38;;;;;;;825.72;758.47;;;;;;;;;;6168903;23;20108;-75
2023/04/22 11:25:00;;;;;;;707.35;643.72;;;;;;;;;;5111415;27;1271467;-74
2023/04/22 11:27:26;;;;;;;732.78;668.40;;;;;;;;;;5119198;27;20472;-73
2023/04/22 11:30:06;;;;;;;762.08;696.70;;;;;;;;;;5120591;27;20050;-74
2023/04/22 11:32:32;;;;;;;779.72;713.88;;;;;;;;;;5102457;27;20192;-73
2023/04/22 11:35:02;;;;;;;784.55;718.58;;;;;;;;;;5116028;27;20644;-75
2023/04/22 11:37:28;;;;;;;803.25;736.45;;;;;;;;;;5119780;27;20046;-74
2023/04/22 11:39:59;;;;;;;810.78;743.65;;;;;;;;;;5120677;27;20568;-74
2023/04/22 11:42:25;;;;;;;836.13;768.20;;;;;;;;;;5097153;27;20113;-74
2023/04/22 11:44:51;;;;;;;841.85;773.67;;;;;;;;;;5139991;27;20042;-74
2023/04/22 11:47:18;;;;;;;849.70;781.05;;;;;;;;;;5121060;27;20046;-74
2023/04/22 11:50:08;;;;;;;845.10;776.80;;;;;;;;;;5118087;27;20396;-74
2023/04/22 11:52:51;;;;;;;857.65;788.85;;;;;;;;;;5118187;27;20135;-74
2023/04/22 11:55:20;;;;;;;862.70;793.60;;;;;;;;;;5120388;27;20580;-74
2023/04/22 11:57:51;;;;;;;846.47;778.08;;;;;;;;;;5120526;27;20360;-75
2023/04/22 12:00:17;;;;;;;843.60;775.72;;;;;;;;;;5133252;27;20281;-75
2023/04/22 12:02:44;;;;;;;855.90;787.30;;;;;;;;;;5121039;27;20046;-75
2023/04/22 12:05:13;;;;;;;847.45;779.30;;;;;;;;;;5118726;27;20042;-74
2023/04/22 12:07:40;;;;;;;853.25;785.00;;;;;;;;;;5121693;27;20072;-74
2023/04/22 12:10:07;;;;;;;860.03;791.28;;;;;;;;;;5119763;27;20039;-74
2023/04/22 12:12:35;;;;;;;861.55;792.95;;;;;;;;;;5120000;27;20594;-75
2023/04/22 12:15:11;;;;;;;859.60;791.10;;;;;;;;;;5121108;27;20111;-75
2023/04/22 12:17:37;;;;;;;863.85;795.28;;;;;;;;;;5119586;27;20057;-75
2023/04/22 12:20:06;;;;;;;833.80;766.55;;;;;;;;;;5122372;27;20049;-74
2023/04/22 12:22:32;;;;;;;827.28;760.40;;;;;;;;;;5121995;27;20218;-73
2023/04/22 12:25:02;;;;;;;830.30;763.17;;;;;;;;;;5119873;27;20061;-73
2023/04/22 12:27:28;;;;;;;834.05;766.83;;;;;;;;;;5119867;27;20137;-75
2023/04/22 12:29:55;;;;;;;821.63;754.95;;;;;;;;;;5119735;27;20042;-74
2023/04/22 12:32:22;;;;;;;817.15;750.78;;;;;;;;;;5098980;27;20054;-75
2023/04/22 12:34:48;;;;;;;813.03;746.83;;;;;;;;;;5117188;27;21000;-75
2023/04/22 12:37:15;;;;;;;782.58;717.58;;;;;;;;;;5107468;27;20089;-74
2023/04/22 12:39:41;;;;;;;797.58;732.08;;;;;;;;;;5125114;27;20490;-74
2023/04/22 12:42:07;;;;;;;794.80;729.83;;;;;;;;;;5107241;27;20430;-75
2023/04/22 12:44:33;;;;;;;797.93;733.10;;;;;;;;;;5106365;27;20043;-74
2023/04/22 12:46:59;;;;;;;793.13;728.73;;;;;;;;;;5106905;27;20507;-74
2023/04/22 12:49:26;;;;;;;793.70;729.43;;;;;;;;;;5107817;27;20066;-73
2023/04/22 12:51:52;;;;;;;791.80;727.50;;;;;;;;;;5104043;27;20047;-72
2023/04/22 12:54:21;;;;;;;798.13;733.70;;;;;;;;;;5107517;27;20043;-71
2023/04/22 12:56:48;;;;;;;801.20;736.63;;;;;;;;;;5120534;27;20188;-73
2023/04/22 12:59:15;;;;;;;785.60;721.50;;;;;;;;;;5104144;27;20047;-72
2023/04/22 13:01:41;;;;;;;792.73;728.57;;;;;;;;;;5106157;27;20489;-74
2023/04/22 13:04:07;;;;;;;768.87;705.43;;;;;;;;;;5124999;27;20051;-73
2023/04/22 13:06:35;;;;;;;775.10;711.43;;;;;;;;;;5104375;27;20142;-72
2023/04/22 13:09:02;;;;;;;770.27;707.10;;;;;;;;;;5085452;27;20051;-73
2023/04/22 13:11:28;;;;;;;780.90;717.10;;;;;;;;;;5084779;27;20063;-74
2023/04/22 13:13:54;;;;;;;773.13;710.03;;;;;;;;;;5124380;27;20034;-73
2023/04/22 13:16:20;;;;;;;781.83;718.63;;;;;;;;;;5101383;27;20047;-73
2023/04/22 13:18:46;;;;;;;773.17;710.23;;;;;;;;;;5127051;27;20568;-73
2023/04/22 13:21:14;;;;;;;775.47;712.40;;;;;;;;;;5102976;27;20091;-72
2023/04/22 13:23:40;;;;;;;772.83;709.93;;;;;;;;;;5106643;27;20802;-73
2023/04/22 13:26:06;;;;;;;770.33;707.67;;;;;;;;;;5104069;27;20061;-73
2023/04/22 13:28:32;;;;;;;764.37;701.83;;;;;;;;;;5102324;27;20047;-73
2023/04/22 13:30:58;;;;;;;761.53;699.13;;;;;;;;;;5103986;27;20054;-73
2023/04/22 13:33:24;;;;;;;760.80;698.43;;;;;;;;;;5106559;27;20076;-73
2023/04/22 13:35:50;;;;;;;754.50;692.60;;;;;;;;;;5085807;27;20146;-73
2023/04/22 13:38:16;;;;;;;749.67;687.87;;;;;;;;;;5106939;27;20570;-73
2023/04/22 13:40:42;;;;;;;737.40;676.00;;;;;;;;;;5106141;27;20043;-73
2023/04/22 13:43:09;;;;;;;719.50;658.67;;;;;;;;;;5116210;27;20127;-73
2023/04/22 13:45:35;;;;;;;717.87;657.33;;;;;;;;;;5107150;27;20046;-73
2023/04/22 13:48:01;;;;;;;716.57;656.07;;;;;;;;;;5104455;27;20488;-72
2023/04/22 13:50:28;;;;;;;686.80;627.33;;;;;;;;;;5125248;27;20043;-72
2023/04/22 13:52:54;;;;;;;702.77;642.77;;;;;;;;;;5122020;27;21478;-72
2023/04/22 13:55:20;;;;;;;683.60;624.17;;;;;;;;;;5104709;27;20472;-72
2023/04/22 13:57:46;;;;;;;681.33;622.13;;;;;;;;;;5124490;27;20399;-72
